sensor_id;sensor_type;location;lat;lon;timestamp;P1;durP1;ratioP1;P2;durP2;ratioP2
21215;SDS011;10765;50.954;5.322;2023-04-03T00:00:49;12.43;;;11.17;;
21215;SDS011;10765;50.954;5.322;2023-04-03T00:03:16;8.03;;;7.23;;
21215;SDS011;10765;50.954;5.322;2023-04-03T00:05:45;8.43;;;7.20;;
21215;SDS011;10765;50.954;5.322;2023-04-03T00:08:14;8.10;;;6.93;;
21215;SDS011;10765;50.954;5.322;2023-04-03T00:10:41;7.63;;;6.93;;
21215;SDS011;10765;50.954;5.322;2023-04-03T00:13:08;8.33;;;7.53;;
21215;SDS011;10765;50.954;5.322;2023-04-03T00:15:35;7.90;;;7.10;;
21215;SDS011;10765;50.954;5.322;2023-04-03T00:18:03;9.03;;;8.17;;
21215;SDS011;10765;50.954;5.322;2023-04-03T00:20:30;8.67;;;7.13;;
21215;SDS011;10765;50.954;5.322;2023-04-03T00:22:57;8.67;;;6.90;;
21215;SDS011;10765;50.954;5.322;2023-04-03T00:25:25;13.03;;;7.10;;
21215;SDS011;10765;50.954;5.322;2023-04-03T00:27:52;7.93;;;7.10;;
21215;SDS011;10765;50.954;5.322;2023-04-03T00:30:20;8.10;;;7.30;;
21215;SDS011;10765;50.954;5.322;2023-04-03T00:32:48;7.80;;;7.03;;
21215;SDS011;10765;50.954;5.322;2023-04-03T00:35:16;8.33;;;7.50;;
21215;SDS011;10765;50.954;5.322;2023-04-03T00:37:44;7.97;;;7.27;;
21215;SDS011;10765;50.954;5.322;2023-04-03T00:40:11;8.73;;;7.77;;
21215;SDS011;10765;50.954;5.322;2023-04-03T00:42:41;9.07;;;7.40;;
21215;SDS011;10765;50.954;5.322;2023-04-03T00:45:23;8.93;;;7.87;;
21215;SDS011;10765;50.954;5.322;2023-04-03T00:47:52;8.47;;;7.43;;
21215;SDS011;10765;50.954;5.322;2023-04-03T00:50:20;7.87;;;7.07;;
21215;SDS011;10765;50.954;5.322;2023-04-03T00:52:47;8.63;;;7.83;;
21215;SDS011;10765;50.954;5.322;2023-04-03T00:55:14;8.03;;;7.23;;
21215;SDS011;10765;50.954;5.322;2023-04-03T00:57:43;8.10;;;7.33;;
21215;SDS011;10765;50.954;5.322;2023-04-03T01:00:12;8.90;;;7.83;;
21215;SDS011;10765;50.954;5.322;2023-04-03T01:02:42;8.60;;;7.70;;
21215;SDS011;10765;50.954;5.322;2023-04-03T01:05:10;8.47;;;7.57;;
21215;SDS011;10765;50.954;5.322;2023-04-03T01:07:37;8.83;;;7.80;;
21215;SDS011;10765;50.954;5.322;2023-04-03T01:10:08;10.43;;;7.83;;
21215;SDS011;10765;50.954;5.322;2023-04-03T01:12:39;8.70;;;7.90;;
21215;SDS011;10765;50.954;5.322;2023-04-03T01:15:09;8.63;;;7.73;;
21215;SDS011;10765;50.954;5.322;2023-04-03T01:17:39;8.50;;;7.77;;
21215;SDS011;10765;50.954;5.322;2023-04-03T01:20:16;8.93;;;8.03;;
21215;SDS011;10765;50.954;5.322;2023-04-03T01:23:06;8.97;;;8.10;;
21215;SDS011;10765;50.954;5.322;2023-04-03T01:25:47;8.13;;;7.37;;
21215;SDS011;10765;50.954;5.322;2023-04-03T01:28:16;8.73;;;8.03;;
21215;SDS011;10765;50.954;5.322;2023-04-03T01:30:47;8.73;;;7.80;;
21215;SDS011;10765;50.954;5.322;2023-04-03T01:33:18;10.07;;;8.80;;
21215;SDS011;10765;50.954;5.322;2023-04-03T01:35:45;8.70;;;7.90;;
21215;SDS011;10765;50.954;5.322;2023-04-03T01:38:12;9.90;;;8.57;;
21215;SDS011;10765;50.954;5.322;2023-04-03T01:40:40;9.63;;;8.73;;
21215;SDS011;10765;50.954;5.322;2023-04-03T01:43:06;8.57;;;7.77;;
21215;SDS011;10765;50.954;5.322;2023-04-03T01:45:33;9.20;;;8.03;;
21215;SDS011;10765;50.954;5.322;2023-04-03T01:48:00;8.97;;;8.10;;
21215;SDS011;10765;50.954;5.322;2023-04-03T01:50:29;10.87;;;8.33;;
21215;SDS011;10765;50.954;5.322;2023-04-03T01:52:56;9.00;;;8.10;;
21215;SDS011;10765;50.954;5.322;2023-04-03T01:55:23;8.17;;;7.37;;
21215;SDS011;10765;50.954;5.322;2023-04-03T01:57:50;8.73;;;7.83;;
21215;SDS011;10765;50.954;5.322;2023-04-03T02:00:17;9.67;;;8.70;;
21215;SDS011;10765;50.954;5.322;2023-04-03T02:02:45;9.57;;;8.60;;
21215;SDS011;10765;50.954;5.322;2023-04-03T02:05:12;9.50;;;8.50;;
21215;SDS011;10765;50.954;5.322;2023-04-03T02:07:40;9.97;;;8.53;;
21215;SDS011;10765;50.954;5.322;2023-04-03T02:10:08;10.37;;;8.77;;
21215;SDS011;10765;50.954;5.322;2023-04-03T02:12:35;9.30;;;8.40;;
21215;SDS011;10765;50.954;5.322;2023-04-03T02:15:02;10.20;;;8.87;;
21215;SDS011;10765;50.954;5.322;2023-04-03T02:17:30;10.30;;;8.90;;
21215;SDS011;10765;50.954;5.322;2023-04-03T02:19:56;10.10;;;9.10;;
21215;SDS011;10765;50.954;5.322;2023-04-03T02:22:23;11.03;;;7.77;;
21215;SDS011;10765;50.954;5.322;2023-04-03T02:24:52;9.90;;;8.90;;
21215;SDS011;10765;50.954;5.322;2023-04-03T02:27:19;9.60;;;8.70;;
21215;SDS011;10765;50.954;5.322;2023-04-03T02:29:45;9.93;;;9.03;;
21215;SDS011;10765;50.954;5.322;2023-04-03T02:32:12;10.50;;;9.40;;
21215;SDS011;10765;50.954;5.322;2023-04-03T02:34:39;10.23;;;9.03;;
21215;SDS011;10765;50.954;5.322;2023-04-03T02:37:06;9.50;;;8.70;;
21215;SDS011;10765;50.954;5.322;2023-04-03T02:39:33;10.80;;;9.43;;
21215;SDS011;10765;50.954;5.322;2023-04-03T02:42:01;9.87;;;8.87;;
21215;SDS011;10765;50.954;5.322;2023-04-03T02:44:28;9.97;;;8.97;;
21215;SDS011;10765;50.954;5.322;2023-04-03T02:46:55;10.90;;;9.30;;
21215;SDS011;10765;50.954;5.322;2023-04-03T02:49:22;9.60;;;8.73;;
21215;SDS011;10765;50.954;5.322;2023-04-03T02:51:49;11.03;;;9.90;;
21215;SDS011;10765;50.954;5.322;2023-04-03T02:54:17;10.37;;;9.37;;
21215;SDS011;10765;50.954;5.322;2023-04-03T02:56:43;9.80;;;8.83;;
21215;SDS011;10765;50.954;5.322;2023-04-03T02:59:12;10.07;;;9.07;;
21215;SDS011;10765;50.954;5.322;2023-04-03T03:01:39;9.90;;;8.93;;
21215;SDS011;10765;50.954;5.322;2023-04-03T03:04:06;10.10;;;9.10;;
21215;SDS011;10765;50.954;5.322;2023-04-03T03:06:33;9.87;;;8.87;;
21215;SDS011;10765;50.954;5.322;2023-04-03T03:09:00;11.00;;;9.87;;
21215;SDS011;10765;50.954;5.322;2023-04-03T03:11:27;10.37;;;9.33;;
21215;SDS011;10765;50.954;5.322;2023-04-03T03:13:57;11.37;;;10.17;;
21215;SDS011;10765;50.954;5.322;2023-04-03T03:16:25;10.20;;;9.20;;
21215;SDS011;10765;50.954;5.322;2023-04-03T03:18:52;10.17;;;9.10;;
21215;SDS011;10765;50.954;5.322;2023-04-03T03:21:20;10.43;;;9.43;;
21215;SDS011;10765;50.954;5.322;2023-04-03T03:23:46;12.80;;;9.63;;
21215;SDS011;10765;50.954;5.322;2023-04-03T03:26:13;11.20;;;10.10;;
21215;SDS011;10765;50.954;5.322;2023-04-03T03:28:40;13.03;;;10.13;;
21215;SDS011;10765;50.954;5.322;2023-04-03T03:31:08;10.37;;;9.17;;
21215;SDS011;10765;50.954;5.322;2023-04-03T03:33:38;10.10;;;9.20;;
21215;SDS011;10765;50.954;5.322;2023-04-03T03:36:06;10.77;;;9.67;;
21215;SDS011;10765;50.954;5.322;2023-04-03T03:38:33;12.67;;;10.57;;
21215;SDS011;10765;50.954;5.322;2023-04-03T03:41:00;11.07;;;9.97;;
21215;SDS011;10765;50.954;5.322;2023-04-03T03:43:27;11.30;;;10.30;;
21215;SDS011;10765;50.954;5.322;2023-04-03T03:45:54;11.17;;;9.87;;
21215;SDS011;10765;50.954;5.322;2023-04-03T03:48:21;11.10;;;10.00;;
21215;SDS011;10765;50.954;5.322;2023-04-03T03:50:49;13.47;;;12.17;;
21215;SDS011;10765;50.954;5.322;2023-04-03T03:53:17;11.57;;;10.40;;
21215;SDS011;10765;50.954;5.322;2023-04-03T03:55:44;16.93;;;13.33;;
21215;SDS011;10765;50.954;5.322;2023-04-03T03:58:11;22.20;;;16.87;;
21215;SDS011;10765;50.954;5.322;2023-04-03T04:00:38;28.23;;;18.53;;
21215;SDS011;10765;50.954;5.322;2023-04-03T04:03:05;26.40;;;18.13;;
21215;SDS011;10765;50.954;5.322;2023-04-03T04:05:32;19.37;;;14.73;;
21215;SDS011;10765;50.954;5.322;2023-04-03T04:08:00;12.67;;;11.17;;
21215;SDS011;10765;50.954;5.322;2023-04-03T04:10:27;12.73;;;11.43;;
21215;SDS011;10765;50.954;5.322;2023-04-03T04:12:53;13.27;;;11.87;;
21215;SDS011;10765;50.954;5.322;2023-04-03T04:15:20;14.40;;;11.27;;
21215;SDS011;10765;50.954;5.322;2023-04-03T04:17:49;13.50;;;12.20;;
21215;SDS011;10765;50.954;5.322;2023-04-03T04:20:16;12.67;;;11.37;;
21215;SDS011;10765;50.954;5.322;2023-04-03T04:22:43;14.37;;;12.57;;
21215;SDS011;10765;50.954;5.322;2023-04-03T04:25:11;13.50;;;11.93;;
21215;SDS011;10765;50.954;5.322;2023-04-03T04:27:38;13.73;;;12.33;;
21215;SDS011;10765;50.954;5.322;2023-04-03T04:30:05;16.63;;;13.67;;
21215;SDS011;10765;50.954;5.322;2023-04-03T04:32:33;14.17;;;12.67;;
21215;SDS011;10765;50.954;5.322;2023-04-03T04:35:00;14.13;;;12.73;;
21215;SDS011;10765;50.954;5.322;2023-04-03T04:37:27;15.23;;;13.83;;
21215;SDS011;10765;50.954;5.322;2023-04-03T04:39:54;19.30;;;14.97;;
21215;SDS011;10765;50.954;5.322;2023-04-03T04:42:23;17.10;;;14.07;;
21215;SDS011;10765;50.954;5.322;2023-04-03T04:44:50;15.97;;;14.13;;
21215;SDS011;10765;50.954;5.322;2023-04-03T04:47:17;15.67;;;14.27;;
21215;SDS011;10765;50.954;5.322;2023-04-03T04:49:44;16.00;;;14.33;;
21215;SDS011;10765;50.954;5.322;2023-04-03T04:52:12;17.73;;;14.73;;
21215;SDS011;10765;50.954;5.322;2023-04-03T04:54:39;16.80;;;14.93;;
21215;SDS011;10765;50.954;5.322;2023-04-03T04:57:06;18.80;;;16.23;;
21215;SDS011;10765;50.954;5.322;2023-04-03T04:59:34;18.30;;;16.60;;
21215;SDS011;10765;50.954;5.322;2023-04-03T05:02:01;18.73;;;16.77;;
21215;SDS011;10765;50.954;5.322;2023-04-03T05:04:28;18.57;;;16.67;;
21215;SDS011;10765;50.954;5.322;2023-04-03T05:06:55;20.77;;;18.67;;
21215;SDS011;10765;50.954;5.322;2023-04-03T05:09:22;21.50;;;19.30;;
21215;SDS011;10765;50.954;5.322;2023-04-03T05:11:49;21.17;;;19.10;;
21215;SDS011;10765;50.954;5.322;2023-04-03T05:14:16;19.50;;;17.60;;
21215;SDS011;10765;50.954;5.322;2023-04-03T05:16:44;19.83;;;18.03;;
21215;SDS011;10765;50.954;5.322;2023-04-03T05:19:11;21.00;;;18.97;;
21215;SDS011;10765;50.954;5.322;2023-04-03T05:21:38;21.10;;;19.00;;
21215;SDS011;10765;50.954;5.322;2023-04-03T05:24:05;21.57;;;19.57;;
21215;SDS011;10765;50.954;5.322;2023-04-03T05:26:34;22.40;;;20.20;;
21215;SDS011;10765;50.954;5.322;2023-04-03T05:29:01;21.17;;;18.80;;
21215;SDS011;10765;50.954;5.322;2023-04-03T05:31:28;22.30;;;20.13;;
21215;SDS011;10765;50.954;5.322;2023-04-03T05:33:57;21.67;;;19.47;;
21215;SDS011;10765;50.954;5.322;2023-04-03T05:36:24;22.37;;;19.97;;
21215;SDS011;10765;50.954;5.322;2023-04-03T05:38:51;20.90;;;19.00;;
21215;SDS011;10765;50.954;5.322;2023-04-03T05:41:18;21.33;;;19.07;;
21215;SDS011;10765;50.954;5.322;2023-04-03T05:43:46;20.70;;;18.80;;
21215;SDS011;10765;50.954;5.322;2023-04-03T05:46:15;20.37;;;18.47;;
21215;SDS011;10765;50.954;5.322;2023-04-03T05:48:43;18.03;;;16.33;;
21215;SDS011;10765;50.954;5.322;2023-04-03T05:51:14;18.20;;;16.40;;
21215;SDS011;10765;50.954;5.322;2023-04-03T05:53:43;38.57;;;30.27;;
21215;SDS011;10765;50.954;5.322;2023-04-03T05:56:10;24.57;;;20.70;;
21215;SDS011;10765;50.954;5.322;2023-04-03T05:58:37;37.10;;;27.07;;
21215;SDS011;10765;50.954;5.322;2023-04-03T06:01:04;64.63;;;47.57;;
21215;SDS011;10765;50.954;5.322;2023-04-03T06:03:32;75.73;;;42.37;;
21215;SDS011;10765;50.954;5.322;2023-04-03T06:05:58;14.97;;;12.70;;
21215;SDS011;10765;50.954;5.322;2023-04-03T06:08:29;21.47;;;17.00;;
21215;SDS011;10765;50.954;5.322;2023-04-03T06:10:56;18.57;;;14.97;;
21215;SDS011;10765;50.954;5.322;2023-04-03T06:13:23;7.90;;;7.10;;
21215;SDS011;10765;50.954;5.322;2023-04-03T06:15:50;10.70;;;9.67;;
21215;SDS011;10765;50.954;5.322;2023-04-03T06:18:17;6.90;;;6.20;;
21215;SDS011;10765;50.954;5.322;2023-04-03T06:20:45;8.17;;;7.37;;
21215;SDS011;10765;50.954;5.322;2023-04-03T06:23:12;7.77;;;6.20;;
21215;SDS011;10765;50.954;5.322;2023-04-03T06:25:40;7.00;;;5.70;;
21215;SDS011;10765;50.954;5.322;2023-04-03T06:28:08;7.00;;;5.43;;
21215;SDS011;10765;50.954;5.322;2023-04-03T06:30:35;9.73;;;8.73;;
21215;SDS011;10765;50.954;5.322;2023-04-03T06:33:02;6.77;;;6.13;;
21215;SDS011;10765;50.954;5.322;2023-04-03T06:35:29;9.00;;;8.13;;
21215;SDS011;10765;50.954;5.322;2023-04-03T06:37:56;5.73;;;5.23;;
21215;SDS011;10765;50.954;5.322;2023-04-03T06:40:24;8.53;;;7.13;;
21215;SDS011;10765;50.954;5.322;2023-04-03T06:42:53;5.50;;;4.67;;
21215;SDS011;10765;50.954;5.322;2023-04-03T06:45:20;7.60;;;6.70;;
21215;SDS011;10765;50.954;5.322;2023-04-03T06:47:46;5.40;;;4.53;;
21215;SDS011;10765;50.954;5.322;2023-04-03T06:50:13;7.87;;;5.73;;
21215;SDS011;10765;50.954;5.322;2023-04-03T06:52:40;6.43;;;5.20;;
21215;SDS011;10765;50.954;5.322;2023-04-03T06:55:08;6.40;;;5.10;;
21215;SDS011;10765;50.954;5.322;2023-04-03T06:57:35;10.33;;;9.30;;
21215;SDS011;10765;50.954;5.322;2023-04-03T07:00:05;6.50;;;5.73;;
21215;SDS011;10765;50.954;5.322;2023-04-03T07:02:34;8.87;;;7.97;;
21215;SDS011;10765;50.954;5.322;2023-04-03T07:05:01;4.30;;;3.83;;
21215;SDS011;10765;50.954;5.322;2023-04-03T07:07:28;6.27;;;4.00;;
21215;SDS011;10765;50.954;5.322;2023-04-03T07:09:55;5.47;;;4.10;;
21215;SDS011;10765;50.954;5.322;2023-04-03T07:12:22;6.17;;;4.60;;
21215;SDS011;10765;50.954;5.322;2023-04-03T07:14:49;5.50;;;3.63;;
21215;SDS011;10765;50.954;5.322;2023-04-03T07:17:17;5.67;;;3.80;;
21215;SDS011;10765;50.954;5.322;2023-04-03T07:19:44;4.53;;;4.10;;
21215;SDS011;10765;50.954;5.322;2023-04-03T07:22:11;5.80;;;4.80;;
21215;SDS011;10765;50.954;5.322;2023-04-03T07:24:38;4.57;;;3.70;;
21215;SDS011;10765;50.954;5.322;2023-04-03T07:27:05;5.17;;;4.30;;
21215;SDS011;10765;50.954;5.322;2023-04-03T07:29:33;6.07;;;3.70;;
21215;SDS011;10765;50.954;5.322;2023-04-03T07:32:01;6.33;;;3.47;;
21215;SDS011;10765;50.954;5.322;2023-04-03T07:34:29;8.30;;;7.33;;
21215;SDS011;10765;50.954;5.322;2023-04-03T07:36:56;5.00;;;4.40;;
21215;SDS011;10765;50.954;5.322;2023-04-03T07:39:23;4.43;;;3.40;;
21215;SDS011;10765;50.954;5.322;2023-04-03T07:41:51;6.23;;;3.47;;
21215;SDS011;10765;50.954;5.322;2023-04-03T07:44:18;5.83;;;3.90;;
21215;SDS011;10765;50.954;5.322;2023-04-03T07:46:44;4.90;;;3.40;;
21215;SDS011;10765;50.954;5.322;2023-04-03T07:49:11;6.37;;;4.93;;
21215;SDS011;10765;50.954;5.322;2023-04-03T07:51:40;7.93;;;6.30;;
21215;SDS011;10765;50.954;5.322;2023-04-03T07:54:06;4.93;;;3.30;;
21215;SDS011;10765;50.954;5.322;2023-04-03T07:56:33;5.73;;;3.47;;
21215;SDS011;10765;50.954;5.322;2023-04-03T07:59:00;4.83;;;3.07;;
21215;SDS011;10765;50.954;5.322;2023-04-03T08:01:27;6.53;;;3.27;;
21215;SDS011;10765;50.954;5.322;2023-04-03T08:03:57;4.70;;;4.17;;
21215;SDS011;10765;50.954;5.322;2023-04-03T08:06:24;4.77;;;3.13;;
21215;SDS011;10765;50.954;5.322;2023-04-03T08:08:52;6.30;;;3.00;;
21215;SDS011;10765;50.954;5.322;2023-04-03T08:11:19;5.37;;;3.37;;
21215;SDS011;10765;50.954;5.322;2023-04-03T08:13:46;4.17;;;2.60;;
21215;SDS011;10765;50.954;5.322;2023-04-03T08:16:15;5.13;;;2.47;;
21215;SDS011;10765;50.954;5.322;2023-04-03T08:18:44;3.47;;;2.33;;
21215;SDS011;10765;50.954;5.322;2023-04-03T08:21:11;3.90;;;2.50;;
21215;SDS011;10765;50.954;5.322;2023-04-03T08:23:39;3.33;;;2.43;;
21215;SDS011;10765;50.954;5.322;2023-04-03T08:26:09;3.70;;;2.57;;
21215;SDS011;10765;50.954;5.322;2023-04-03T08:28:37;3.73;;;2.60;;
21215;SDS011;10765;50.954;5.322;2023-04-03T08:31:06;4.47;;;3.00;;
21215;SDS011;10765;50.954;5.322;2023-04-03T08:33:36;4.00;;;2.90;;
21215;SDS011;10765;50.954;5.322;2023-04-03T08:36:03;4.73;;;2.60;;
21215;SDS011;10765;50.954;5.322;2023-04-03T08:38:31;3.93;;;2.83;;
21215;SDS011;10765;50.954;5.322;2023-04-03T08:40:59;3.37;;;2.73;;
21215;SDS011;10765;50.954;5.322;2023-04-03T08:43:33;4.07;;;2.43;;
21215;SDS011;10765;50.954;5.322;2023-04-03T08:46:08;3.13;;;2.30;;
21215;SDS011;10765;50.954;5.322;2023-04-03T08:48:40;12.63;;;7.70;;
21215;SDS011;10765;50.954;5.322;2023-04-03T08:51:10;6.50;;;5.53;;
21215;SDS011;10765;50.954;5.322;2023-04-03T08:53:42;7.10;;;4.87;;
21215;SDS011;10765;50.954;5.322;2023-04-03T08:56:12;11.20;;;10.10;;
21215;SDS011;10765;50.954;5.322;2023-04-03T08:58:45;6.70;;;5.13;;
21215;SDS011;10765;50.954;5.322;2023-04-03T09:01:17;3.07;;;2.30;;
21215;SDS011;10765;50.954;5.322;2023-04-03T09:03:46;3.20;;;2.00;;
21215;SDS011;10765;50.954;5.322;2023-04-03T09:06:14;3.27;;;2.00;;
21215;SDS011;10765;50.954;5.322;2023-04-03T09:08:46;4.13;;;1.97;;
21215;SDS011;10765;50.954;5.322;2023-04-03T09:11:19;2.87;;;1.67;;
21215;SDS011;10765;50.954;5.322;2023-04-03T09:13:54;5.70;;;2.50;;
21215;SDS011;10765;50.954;5.322;2023-04-03T09:16:29;14.50;;;2.90;;
21215;SDS011;10765;50.954;5.322;2023-04-03T09:19:06;1.93;;;1.70;;
21215;SDS011;10765;50.954;5.322;2023-04-03T09:21:41;3.73;;;2.10;;
21215;SDS011;10765;50.954;5.322;2023-04-03T09:24:09;3.17;;;1.80;;
21215;SDS011;10765;50.954;5.322;2023-04-03T09:26:40;3.80;;;2.10;;
21215;SDS011;10765;50.954;5.322;2023-04-03T09:29:12;4.53;;;1.97;;
21215;SDS011;10765;50.954;5.322;2023-04-03T09:31:44;4.07;;;2.13;;
21215;SDS011;10765;50.954;5.322;2023-04-03T09:34:14;5.43;;;2.10;;
21215;SDS011;10765;50.954;5.322;2023-04-03T09:36:48;3.53;;;2.10;;
21215;SDS011;10765;50.954;5.322;2023-04-03T09:39:17;5.63;;;2.10;;
21215;SDS011;10765;50.954;5.322;2023-04-03T09:42:00;3.23;;;2.00;;
21215;SDS011;10765;50.954;5.322;2023-04-03T09:44:31;3.47;;;1.70;;
21215;SDS011;10765;50.954;5.322;2023-04-03T09:46:59;2.77;;;1.93;;
21215;SDS011;10765;50.954;5.322;2023-04-03T09:49:43;2.70;;;1.73;;
21215;SDS011;10765;50.954;5.322;2023-04-03T09:52:18;5.57;;;1.90;;
21215;SDS011;10765;50.954;5.322;2023-04-03T09:54:45;6.70;;;2.60;;
21215;SDS011;10765;50.954;5.322;2023-04-03T09:57:12;3.33;;;2.10;;
21215;SDS011;10765;50.954;5.322;2023-04-03T09:59:43;4.97;;;2.33;;
21215;SDS011;10765;50.954;5.322;2023-04-03T10:05:23;2.73;;;2.20;;
21215;SDS011;10765;50.954;5.322;2023-04-03T10:08:02;3.50;;;1.90;;
21215;SDS011;10765;50.954;5.322;2023-04-03T10:10:34;2.53;;;1.83;;
21215;SDS011;10765;50.954;5.322;2023-04-03T10:13:05;2.97;;;1.80;;
21215;SDS011;10765;50.954;5.322;2023-04-03T10:15:39;3.37;;;2.30;;
21215;SDS011;10765;50.954;5.322;2023-04-03T10:18:15;2.53;;;1.73;;
21215;SDS011;10765;50.954;5.322;2023-04-03T10:20:58;2.60;;;1.70;;
21215;SDS011;10765;50.954;5.322;2023-04-03T10:23:31;2.17;;;1.53;;
21215;SDS011;10765;50.954;5.322;2023-04-03T10:26:08;3.13;;;1.57;;
21215;SDS011;10765;50.954;5.322;2023-04-03T10:28:44;2.20;;;1.33;;
21215;SDS011;10765;50.954;5.322;2023-04-03T10:31:19;3.03;;;1.53;;
21215;SDS011;10765;50.954;5.322;2023-04-03T10:33:52;3.87;;;1.80;;
21215;SDS011;10765;50.954;5.322;2023-04-03T10:36:29;2.90;;;1.60;;
21215;SDS011;10765;50.954;5.322;2023-04-03T10:39:08;3.53;;;2.07;;
21215;SDS011;10765;50.954;5.322;2023-04-03T10:41:46;3.33;;;1.77;;
21215;SDS011;10765;50.954;5.322;2023-04-03T10:44:22;2.20;;;1.50;;
21215;SDS011;10765;50.954;5.322;2023-04-03T10:47:01;2.60;;;1.40;;
21215;SDS011;10765;50.954;5.322;2023-04-03T10:49:36;6.27;;;4.80;;
21215;SDS011;10765;50.954;5.322;2023-04-03T10:52:13;5.57;;;3.73;;
21215;SDS011;10765;50.954;5.322;2023-04-03T10:54:46;7.17;;;5.77;;
21215;SDS011;10765;50.954;5.322;2023-04-03T10:57:21;2.57;;;1.90;;
21215;SDS011;10765;50.954;5.322;2023-04-03T10:59:51;1.63;;;0.93;;
21215;SDS011;10765;50.954;5.322;2023-04-03T11:02:24;6.60;;;5.93;;
21215;SDS011;10765;50.954;5.322;2023-04-03T11:04:54;1.30;;;0.83;;
21215;SDS011;10765;50.954;5.322;2023-04-03T11:07:27;1.83;;;0.90;;
21215;SDS011;10765;50.954;5.322;2023-04-03T11:09:59;2.27;;;1.43;;
21215;SDS011;10765;50.954;5.322;2023-04-03T11:12:34;1.27;;;0.97;;
21215;SDS011;10765;50.954;5.322;2023-04-03T11:15:11;1.37;;;1.07;;
21215;SDS011;10765;50.954;5.322;2023-04-03T11:17:41;1.30;;;0.90;;
21215;SDS011;10765;50.954;5.322;2023-04-03T11:20:14;1.63;;;0.90;;
21215;SDS011;10765;50.954;5.322;2023-04-03T11:22:45;1.50;;;0.87;;
21215;SDS011;10765;50.954;5.322;2023-04-03T11:25:18;2.03;;;0.80;;
21215;SDS011;10765;50.954;5.322;2023-04-03T11:27:49;1.00;;;0.73;;
21215;SDS011;10765;50.954;5.322;2023-04-03T11:30:21;1.80;;;0.80;;
21215;SDS011;10765;50.954;5.322;2023-04-03T11:33:02;2.27;;;0.90;;
21215;SDS011;10765;50.954;5.322;2023-04-03T11:35:41;1.37;;;0.93;;
21215;SDS011;10765;50.954;5.322;2023-04-03T11:38:13;3.00;;;1.10;;
21215;SDS011;10765;50.954;5.322;2023-04-03T11:40:45;1.17;;;0.70;;
21215;SDS011;10765;50.954;5.322;2023-04-03T11:43:20;1.23;;;0.90;;
21215;SDS011;10765;50.954;5.322;2023-04-03T11:45:52;3.53;;;1.07;;
21215;SDS011;10765;50.954;5.322;2023-04-03T12:12:55;2.00;;;1.17;;
21215;SDS011;10765;50.954;5.322;2023-04-03T12:18:31;2.93;;;1.20;;
21215;SDS011;10765;50.954;5.322;2023-04-03T12:21:17;3.13;;;1.20;;
21215;SDS011;10765;50.954;5.322;2023-04-03T12:24:03;3.23;;;1.30;;
21215;SDS011;10765;50.954;5.322;2023-04-03T12:26:34;4.87;;;1.27;;
21215;SDS011;10765;50.954;5.322;2023-04-03T12:29:10;2.53;;;1.07;;
21215;SDS011;10765;50.954;5.322;2023-04-03T12:31:45;2.57;;;1.30;;
21215;SDS011;10765;50.954;5.322;2023-04-03T12:34:28;2.20;;;1.13;;
21215;SDS011;10765;50.954;5.322;2023-04-03T12:37:08;1.87;;;1.33;;
21215;SDS011;10765;50.954;5.322;2023-04-03T12:39:58;2.03;;;1.50;;
21215;SDS011;10765;50.954;5.322;2023-04-03T12:42:41;1.90;;;1.10;;
21215;SDS011;10765;50.954;5.322;2023-04-03T12:45:19;2.20;;;1.30;;
21215;SDS011;10765;50.954;5.322;2023-04-03T12:47:48;2.67;;;1.40;;
21215;SDS011;10765;50.954;5.322;2023-04-03T12:50:19;2.53;;;1.10;;
21215;SDS011;10765;50.954;5.322;2023-04-03T12:52:51;2.00;;;1.40;;
21215;SDS011;10765;50.954;5.322;2023-04-03T12:55:22;2.67;;;1.27;;
21215;SDS011;10765;50.954;5.322;2023-04-03T12:57:51;2.27;;;1.40;;
21215;SDS011;10765;50.954;5.322;2023-04-03T13:00:19;2.93;;;1.43;;
21215;SDS011;10765;50.954;5.322;2023-04-03T13:02:53;3.63;;;3.00;;
21215;SDS011;10765;50.954;5.322;2023-04-03T13:05:21;3.77;;;2.10;;
21215;SDS011;10765;50.954;5.322;2023-04-03T13:07:49;5.37;;;4.50;;
21215;SDS011;10765;50.954;5.322;2023-04-03T13:10:22;2.00;;;1.30;;
21215;SDS011;10765;50.954;5.322;2023-04-03T13:12:49;6.33;;;2.83;;
21215;SDS011;10765;50.954;5.322;2023-04-03T13:15:20;3.57;;;2.10;;
21215;SDS011;10765;50.954;5.322;2023-04-03T13:17:48;2.80;;;1.70;;
21215;SDS011;10765;50.954;5.322;2023-04-03T13:20:19;2.40;;;1.40;;
21215;SDS011;10765;50.954;5.322;2023-04-03T13:22:49;4.07;;;1.70;;
21215;SDS011;10765;50.954;5.322;2023-04-03T13:25:20;3.07;;;1.53;;
21215;SDS011;10765;50.954;5.322;2023-04-03T13:27:48;2.10;;;1.50;;
21215;SDS011;10765;50.954;5.322;2023-04-03T13:30:28;2.33;;;1.30;;
21215;SDS011;10765;50.954;5.322;2023-04-03T13:32:58;2.70;;;1.80;;
21215;SDS011;10765;50.954;5.322;2023-04-03T13:35:29;2.80;;;1.77;;
21215;SDS011;10765;50.954;5.322;2023-04-03T13:37:58;2.33;;;1.50;;
21215;SDS011;10765;50.954;5.322;2023-04-03T13:40:26;2.23;;;1.67;;
21215;SDS011;10765;50.954;5.322;2023-04-03T13:43:02;3.50;;;1.97;;
21215;SDS011;10765;50.954;5.322;2023-04-03T13:45:32;2.33;;;1.40;;
21215;SDS011;10765;50.954;5.322;2023-04-03T13:48:07;3.97;;;1.60;;
21215;SDS011;10765;50.954;5.322;2023-04-03T13:50:53;2.20;;;1.50;;
21215;SDS011;10765;50.954;5.322;2023-04-03T13:53:23;1.83;;;1.67;;
21215;SDS011;10765;50.954;5.322;2023-04-03T13:55:53;1.70;;;1.30;;
21215;SDS011;10765;50.954;5.322;2023-04-03T13:58:23;5.50;;;1.90;;
21215;SDS011;10765;50.954;5.322;2023-04-03T14:00:53;2.47;;;1.50;;
21215;SDS011;10765;50.954;5.322;2023-04-03T14:03:22;2.20;;;1.40;;
21215;SDS011;10765;50.954;5.322;2023-04-03T14:05:51;2.00;;;1.67;;
21215;SDS011;10765;50.954;5.322;2023-04-03T14:08:18;3.07;;;1.67;;
21215;SDS011;10765;50.954;5.322;2023-04-03T14:10:46;3.70;;;1.70;;
21215;SDS011;10765;50.954;5.322;2023-04-03T14:13:15;4.50;;;1.67;;
21215;SDS011;10765;50.954;5.322;2023-04-03T14:15:43;4.93;;;1.90;;
21215;SDS011;10765;50.954;5.322;2023-04-03T14:18:15;3.00;;;1.70;;
21215;SDS011;10765;50.954;5.322;2023-04-03T14:20:44;2.70;;;1.70;;
21215;SDS011;10765;50.954;5.322;2023-04-03T14:23:11;6.90;;;4.27;;
21215;SDS011;10765;50.954;5.322;2023-04-03T14:25:39;23.50;;;16.00;;
21215;SDS011;10765;50.954;5.322;2023-04-03T14:28:12;3.60;;;2.30;;
21215;SDS011;10765;50.954;5.322;2023-04-03T14:30:42;3.23;;;1.50;;
21215;SDS011;10765;50.954;5.322;2023-04-03T14:33:10;5.07;;;2.57;;
21215;SDS011;10765;50.954;5.322;2023-04-03T14:35:42;3.13;;;1.67;;
21215;SDS011;10765;50.954;5.322;2023-04-03T14:38:19;8.70;;;6.57;;
21215;SDS011;10765;50.954;5.322;2023-04-03T14:40:49;5.33;;;2.10;;
21215;SDS011;10765;50.954;5.322;2023-04-03T14:43:16;2.53;;;1.60;;
21215;SDS011;10765;50.954;5.322;2023-04-03T14:45:44;3.03;;;1.70;;
21215;SDS011;10765;50.954;5.322;2023-04-03T14:48:12;3.23;;;1.63;;
21215;SDS011;10765;50.954;5.322;2023-04-03T14:50:45;3.53;;;1.50;;
21215;SDS011;10765;50.954;5.322;2023-04-03T14:53:14;3.20;;;1.80;;
21215;SDS011;10765;50.954;5.322;2023-04-03T14:55:42;5.13;;;1.50;;
21215;SDS011;10765;50.954;5.322;2023-04-03T14:58:11;4.60;;;1.80;;
21215;SDS011;10765;50.954;5.322;2023-04-03T15:00:39;2.90;;;1.47;;
21215;SDS011;10765;50.954;5.322;2023-04-03T15:03:09;2.27;;;1.60;;
21215;SDS011;10765;50.954;5.322;2023-04-03T15:05:41;2.93;;;1.73;;
21215;SDS011;10765;50.954;5.322;2023-04-03T15:08:13;3.23;;;1.70;;
21215;SDS011;10765;50.954;5.322;2023-04-03T15:10:45;3.80;;;1.70;;
21215;SDS011;10765;50.954;5.322;2023-04-03T15:13:12;4.17;;;1.90;;
21215;SDS011;10765;50.954;5.322;2023-04-03T15:15:39;3.70;;;1.80;;
21215;SDS011;10765;50.954;5.322;2023-04-03T15:18:06;2.40;;;1.60;;
21215;SDS011;10765;50.954;5.322;2023-04-03T15:20:36;5.17;;;3.33;;
21215;SDS011;10765;50.954;5.322;2023-04-03T15:23:05;3.13;;;1.70;;
21215;SDS011;10765;50.954;5.322;2023-04-03T15:25:31;2.37;;;1.40;;